Hilt, California
Current Conditions -  °F | °C
As of 5:53 AM on Thursday 23 Oct 2014 (Local Time) from KSIY Reporting Station
Light Rain Light Rain  
Wind Chill: 52°   Ceiling: 7500
Heat Index: 52°   Visibility: 9mi
Dew Point: 48°   Wind: 10mph
Humidity: 86%   Direction: 180°S
Pressure: 29.94"   Gusts: NA
Location:  41.9064°N, 122.501°W
Report Text: KSIY 231253Z AUTO 18009KT 9SM -RA SCT048 BKN075 OVC110 11/09 A2994 RMK AO2 RAB00 SLP138 P0005 T01110089
Loading
Personal Weather Stations






























Interactive Weather Map
Tropical Storm Tracking
New forecast layout! Learn more

10-Day Weather Forecast

Advertisements
Track Severe Weather on mobile